createdAt,value
2022-12-05T00:02:25.405Z,87.42
2022-12-05T00:07:29.328Z,87.53
2022-12-05T00:12:33.649Z,86.74
2022-12-05T00:17:36.558Z,87.34
2022-12-05T00:22:39.893Z,85.75
2022-12-05T00:27:44.135Z,85.82
2022-12-05T00:32:47.077Z,87.40
2022-12-05T00:37:50.055Z,87.30
2022-12-05T00:42:54.343Z,87.49
2022-12-05T00:47:57.331Z,87.70
2022-12-05T00:53:00.333Z,88.18
2022-12-05T00:58:04.742Z,88.40
2022-12-05T01:03:07.734Z,86.95
2022-12-05T01:08:10.725Z,85.81
2022-12-05T01:13:15.055Z,86.25
2022-12-05T01:18:18.157Z,85.69
2022-12-05T01:23:21.385Z,86.42
2022-12-05T01:28:25.697Z,85.69
2022-12-05T01:33:28.590Z,87.33
2022-12-05T01:38:31.564Z,87.85
2022-12-05T01:43:54.840Z,85.67
2022-12-05T01:49:02.862Z,86.13
2022-12-05T01:54:07.185Z,86.96
2022-12-05T01:59:12.847Z,87.02
2022-12-05T02:04:16.071Z,87.67
2022-12-05T02:09:18.967Z,85.96
2022-12-05T02:14:32.608Z,86.03
2022-12-05T02:20:04.619Z,85.84
2022-12-05T02:25:23.225Z,85.59
2022-12-05T02:30:28.157Z,86.43
2022-12-05T02:35:42.365Z,86.39
2022-12-05T02:40:52.861Z,87.13
2022-12-05T02:46:02.020Z,86.54
2022-12-05T02:51:09.637Z,86.08
2022-12-05T02:56:13.297Z,86.13
2022-12-05T03:01:18.152Z,86.42
2022-12-05T03:06:25.336Z,86.00
2022-12-05T03:11:31.789Z,86.37
2022-12-05T03:16:40.007Z,85.82
2022-12-05T03:21:50.885Z,85.21
2022-12-05T03:27:02.409Z,84.82
2022-12-05T03:32:11.897Z,84.77
2022-12-05T03:37:22.800Z,86.13
2022-12-05T03:42:32.257Z,85.45
2022-12-05T03:47:44.742Z,85.42
2022-12-05T03:53:18.700Z,85.71
2022-12-05T03:58:23.751Z,85.92
2022-12-05T04:03:39.589Z,85.94
2022-12-05T04:08:48.269Z,86.38
2022-12-05T04:13:54.038Z,85.46
2022-12-05T04:19:03.061Z,85.22
2022-12-05T04:24:26.581Z,86.33
2022-12-05T04:29:35.828Z,85.74
2022-12-05T04:34:43.141Z,85.88
2022-12-05T04:39:52.277Z,85.29
2022-12-05T04:44:58.566Z,84.79
2022-12-05T04:50:05.670Z,85.15
2022-12-05T04:55:11.536Z,84.68
2022-12-05T05:00:14.986Z,85.81
2022-12-05T05:05:21.494Z,86.19
2022-12-05T05:10:36.615Z,85.94
2022-12-05T05:15:39.610Z,85.74
2022-12-05T05:20:43.974Z,85.33
2022-12-05T05:25:46.840Z,85.02
2022-12-05T05:30:49.991Z,85.44
2022-12-05T05:35:54.309Z,85.81
2022-12-05T05:40:57.159Z,85.47
2022-12-05T05:46:00.130Z,85.24
2022-12-05T05:51:06.382Z,85.36
2022-12-05T05:56:11.346Z,85.90
2022-12-05T06:01:17.227Z,86.40
2022-12-05T06:06:21.983Z,86.42
2022-12-05T06:11:27.302Z,86.56
2022-12-05T06:16:31.496Z,86.03
2022-12-05T06:21:35.922Z,86.48
2022-12-05T06:26:38.846Z,87.65
2022-12-05T06:31:42.895Z,88.07
2022-12-05T06:36:47.213Z,88.02
2022-12-05T06:41:50.134Z,86.62
2022-12-05T06:46:53.045Z,86.96
2022-12-05T06:51:57.285Z,86.77
2022-12-05T06:57:00.153Z,87.19
2022-12-05T07:02:03.274Z,87.22
2022-12-05T07:07:07.749Z,87.32
2022-12-05T07:12:10.831Z,87.43
2022-12-05T07:17:13.831Z,87.59
2022-12-05T07:22:18.541Z,87.62
2022-12-05T07:27:26.811Z,88.01
2022-12-05T07:32:32.988Z,87.97
2022-12-05T07:37:37.359Z,87.93
2022-12-05T07:42:40.265Z,87.91
2022-12-05T07:47:43.283Z,87.40
2022-12-05T07:52:47.595Z,86.34
2022-12-05T07:57:50.510Z,85.14
2022-12-05T08:02:53.476Z,85.42
2022-12-05T08:07:57.899Z,85.85
2022-12-05T08:13:00.889Z,89.32
2022-12-05T08:18:03.788Z,90.19
2022-12-05T08:23:08.052Z,89.30
2022-12-05T08:28:10.962Z,88.84
2022-12-05T08:33:13.906Z,89.88
2022-12-05T08:38:18.176Z,88.43
2022-12-05T08:43:21.057Z,87.81
2022-12-05T08:48:28.947Z,87.36
2022-12-05T08:53:33.947Z,86.20
2022-12-05T08:58:37.047Z,86.31
2022-12-05T09:03:46.042Z,86.79
2022-12-05T09:08:55.178Z,86.99
2022-12-05T09:13:59.863Z,86.29
2022-12-05T09:19:03.154Z,86.70
2022-12-05T09:24:07.606Z,84.15
2022-12-05T09:29:16.298Z,84.28
2022-12-05T09:34:20.237Z,85.05
2022-12-05T09:39:25.831Z,83.88
2022-12-05T09:44:42.230Z,84.06
2022-12-05T09:49:51.184Z,83.68
2022-12-05T09:54:56.819Z,83.88
2022-12-05T10:00:02.022Z,82.88
2022-12-05T10:05:29.052Z,82.56
2022-12-05T10:10:44.642Z,83.30
2022-12-05T10:15:56.829Z,83.67
2022-12-05T10:21:04.735Z,83.71
2022-12-05T10:26:13.714Z,83.52
2022-12-05T10:31:20.239Z,83.51
2022-12-05T10:36:26.488Z,84.12
2022-12-05T10:41:30.844Z,82.77
2022-12-05T10:46:33.926Z,82.83
2022-12-05T10:51:37.866Z,82.10
2022-12-05T10:56:44.909Z,82.50
2022-12-05T11:01:50.986Z,82.60
2022-12-05T11:06:58.314Z,81.95
2022-12-05T11:12:20.351Z,82.12
2022-12-05T11:17:26.630Z,82.55
2022-12-05T11:22:34.625Z,82.40
2022-12-05T11:27:38.847Z,82.82
2022-12-05T11:32:41.842Z,82.35
2022-12-05T11:37:47.406Z,82.02
2022-12-05T11:43:12.428Z,83.03
2022-12-05T11:48:36.822Z,81.18
2022-12-05T11:54:16.110Z,80.16
2022-12-05T11:59:45.097Z,79.94
2022-12-05T12:04:56.407Z,81.30
2022-12-05T12:10:11.965Z,81.61
2022-12-05T12:15:38.546Z,80.62
2022-12-05T12:20:56.599Z,81.06
2022-12-05T12:26:08.999Z,79.05
2022-12-05T12:31:40.640Z,79.70
2022-12-05T12:36:49.526Z,80.40
2022-12-05T12:42:25.183Z,80.08
2022-12-05T12:47:42.371Z,80.77
2022-12-05T12:52:58.782Z,79.86
2022-12-05T12:58:12.815Z,80.11
2022-12-05T13:03:22.805Z,79.16
2022-12-05T13:08:31.080Z,79.80
2022-12-05T13:13:37.607Z,78.56
2022-12-05T13:18:41.873Z,79.58
2022-12-05T13:23:50.358Z,80.79
2022-12-05T13:28:56.170Z,79.39
2022-12-05T13:34:00.550Z,79.94
2022-12-05T13:39:23.420Z,79.86
2022-12-05T13:44:34.364Z,79.82
2022-12-05T13:49:45.548Z,80.23
2022-12-05T13:54:59.637Z,81.29
2022-12-05T14:00:06.201Z,83.53
2022-12-05T14:05:46.278Z,84.56
2022-12-05T14:11:11.069Z,84.40
2022-12-05T14:16:47.989Z,83.67
2022-12-05T14:22:03.722Z,84.17
2022-12-05T14:27:12.569Z,83.66
2022-12-05T14:32:26.307Z,83.43
2022-12-05T14:37:34.762Z,84.17
2022-12-05T14:42:42.462Z,83.77
2022-12-05T14:47:52.863Z,83.53
2022-12-05T14:53:23.375Z,83.45
2022-12-05T14:58:34.485Z,83.52
2022-12-05T15:03:41.465Z,82.81
2022-12-05T15:08:48.995Z,84.11
2022-12-05T15:13:52.231Z,83.86
2022-12-05T15:18:59.847Z,84.58
2022-12-05T15:24:07.453Z,84.00
2022-12-05T15:29:14.021Z,82.64
2022-12-05T15:34:23.096Z,83.55
2022-12-05T15:39:28.682Z,83.83
2022-12-05T15:44:37.365Z,85.57
2022-12-05T15:49:41.080Z,85.00
2022-12-05T15:54:46.362Z,84.74
2022-12-05T15:59:53.140Z,84.09
2022-12-05T16:04:59.502Z,84.09
2022-12-05T16:10:03.835Z,84.14
2022-12-05T16:15:13.682Z,84.02
2022-12-05T16:20:25.718Z,83.62
2022-12-05T16:25:33.759Z,84.40
2022-12-05T16:30:38.365Z,84.12
2022-12-05T16:35:43.247Z,84.15
2022-12-05T16:40:59.185Z,83.63
2022-12-05T16:46:42.025Z,83.78
2022-12-05T16:51:47.245Z,83.02
2022-12-05T16:56:51.653Z,82.62
2022-12-05T17:01:54.635Z,83.42
2022-12-05T17:12:05.621Z,82.48
2022-12-05T17:17:13.614Z,82.74
2022-12-05T17:22:17.022Z,81.98
2022-12-05T17:27:22.785Z,83.05
2022-12-05T17:32:25.737Z,83.22
2022-12-05T17:37:28.742Z,82.24
2022-12-05T17:42:33.056Z,82.48
2022-12-05T17:47:36.133Z,82.43
2022-12-05T17:52:39.098Z,81.91
2022-12-05T17:57:43.371Z,82.04
2022-12-05T18:02:46.954Z,82.70
2022-12-05T18:07:49.914Z,82.24
2022-12-05T18:12:54.186Z,82.59
2022-12-05T18:17:57.031Z,82.81
2022-12-05T18:23:01.357Z,82.80
2022-12-05T18:28:05.806Z,82.55
2022-12-05T18:33:08.696Z,84.00
2022-12-05T18:38:12.432Z,84.61
2022-12-05T18:43:16.739Z,84.12
2022-12-05T18:48:48.252Z,83.57
2022-12-05T18:53:51.523Z,84.27
2022-12-05T18:58:57.609Z,84.01
2022-12-05T19:04:02.435Z,83.84
2022-12-05T19:09:09.138Z,83.98
2022-12-05T19:14:13.833Z,84.91
2022-12-05T19:19:17.499Z,84.88
2022-12-05T19:24:20.558Z,84.86
2022-12-05T19:29:24.934Z,86.01
2022-12-05T19:34:27.996Z,85.72
2022-12-05T19:39:31.009Z,86.46
2022-12-05T19:44:35.347Z,86.94
2022-12-05T19:49:38.291Z,85.90
2022-12-05T19:54:41.184Z,85.86
2022-12-05T19:59:45.917Z,86.36
2022-12-05T20:04:49.157Z,85.04
2022-12-05T20:09:52.101Z,85.25
2022-12-05T20:14:57.706Z,87.04
2022-12-05T20:20:00.929Z,85.64
2022-12-05T20:25:04.871Z,86.88
2022-12-05T20:30:10.140Z,86.44
2022-12-05T20:35:13.104Z,86.31
2022-12-05T20:40:16.166Z,86.01
2022-12-05T20:45:20.454Z,85.29
2022-12-05T20:50:23.458Z,85.66
2022-12-05T20:55:26.370Z,85.85
2022-12-05T21:00:30.670Z,85.96
2022-12-05T21:05:35.683Z,86.24
2022-12-05T21:10:38.595Z,84.50
2022-12-05T21:15:43.140Z,84.75
2022-12-05T21:20:46.174Z,84.42
2022-12-05T21:25:49.164Z,83.60
2022-12-05T21:30:53.510Z,84.25
2022-12-05T21:35:56.619Z,83.11
2022-12-05T21:40:59.731Z,82.80
2022-12-05T21:46:04.613Z,83.34
2022-12-05T21:51:08.870Z,83.52
2022-12-05T21:56:15.503Z,82.81
2022-12-05T22:01:21.612Z,82.59
2022-12-05T22:06:24.566Z,82.73
2022-12-05T22:11:27.640Z,83.76
2022-12-05T22:16:33.460Z,83.53
2022-12-05T22:21:36.747Z,83.47
2022-12-05T22:26:39.644Z,84.33
2022-12-05T22:31:43.986Z,84.27
2022-12-05T22:36:49.363Z,83.72
2022-12-05T22:41:52.240Z,83.98
2022-12-05T22:46:56.505Z,83.25
2022-12-05T22:51:59.416Z,83.69
2022-12-05T22:57:02.643Z,83.38
2022-12-05T23:02:06.939Z,83.34
2022-12-05T23:07:09.887Z,84.06
2022-12-05T23:12:12.854Z,84.23
2022-12-05T23:17:17.268Z,84.07
2022-12-05T23:22:20.252Z,83.77
2022-12-05T23:27:23.301Z,84.01
2022-12-05T23:32:27.771Z,84.00
2022-12-05T23:37:30.754Z,83.44
2022-12-05T23:42:33.794Z,84.03
2022-12-05T23:47:38.246Z,84.19
2022-12-05T23:52:41.300Z,84.17
2022-12-05T23:57:44.321Z,84.10
